Portada
METAR-TAF:

METAR-TAF

Aeropuertos :

Tulsa, Oklahoma, Estados Unidos

latitud: 36-11-51N, longitud: 095-53-11W, altitud: 206 m

Observación

El informe se hizo hace 22 minutos, a las 06:53 UTC
Viento 6 kt del sureste
Temperatura 28°C
Humedad 66%
Presión 1012 hPa
Visibilidad: 16.1 km
Cielo despejado

METAR: KTUL 070653Z 14006KT 10SM CLR 28/21 A2988 RMK AO2 SLP108 T02780206

Hora: 02:15 (07:15 UTC)

Pronóstico

El informe se hizo hace 1 hora y 55 minutos, a las 05:20 UTC
Pronóstico válido del 07 a las 06 UTC al 08 a las 06 UTC
Viento 6 kt del sur-sureste
Visibilidad: 10 km
Cielo despejado
A partir de las 07 a las 1700 UTC
Viento 9 kt del sur
Visibilidad: 10 km
Escasas nubes a una altura de 5000 ft
A partir de las 08 a las 0000 UTC
Viento 4 kt del sur-sureste
Visibilidad: 10 km
Escasas nubes a una altura de 10000 ft

TAF: KTUL 070520Z 0706/0806 16006KT P6SM SKC FM071700 17009KT P6SM FEW050 FM080000 15004KT P6SM FEW100

Observaciones y pronósticos meteorológicos de más de 4000 aeropuertos (mensajes METAR y TAF).

Los puntos amarillos y rojos representan las estaciones disponibles.

Ponga el ratón en el punto deseado para ver el nombre de la estación.

Haga clic para ver las observaciones y los pronósticos meteorológicos.

Para cambiar el mapa : haga clic en los botones verdes con una cruz de color negro para hacer un zoom, en el botón verde con un guión para alejar o en las flechas verdes para mapas adyacentes.


METAR-TAF: